createdAt,value
2022-12-06T00:01:29.856Z,7.08
2022-12-06T00:04:03.140Z,7.07
2022-12-06T00:06:33.225Z,7.05
2022-12-06T00:09:01.147Z,7.04
2022-12-06T00:11:32.003Z,7.04
2022-12-06T00:14:03.379Z,7.02
2022-12-06T00:16:31.082Z,7.01
2022-12-06T00:18:59.213Z,7.02
2022-12-06T00:21:32.496Z,7.00
2022-12-06T00:24:12.675Z,7.00
2022-12-06T00:26:43.666Z,6.98
2022-12-06T00:29:18.869Z,6.99
2022-12-06T00:31:46.446Z,6.96
2022-12-06T00:34:13.478Z,6.96
2022-12-06T00:36:42.067Z,6.95
2022-12-06T00:39:17.361Z,6.96
2022-12-06T00:41:44.807Z,6.96
2022-12-06T00:44:12.229Z,6.98
2022-12-06T00:46:39.761Z,6.99
2022-12-06T00:49:08.447Z,7.01
2022-12-06T00:51:36.572Z,7.03
2022-12-06T00:54:03.781Z,7.00
2022-12-06T00:56:31.487Z,7.00
2022-12-06T00:58:58.484Z,7.00
2022-12-06T01:01:31.486Z,7.01
2022-12-06T01:04:00.963Z,7.01
2022-12-06T01:06:34.081Z,7.01
2022-12-06T01:09:06.371Z,6.99
2022-12-06T01:11:33.721Z,6.97
2022-12-06T01:14:00.586Z,6.98
2022-12-06T01:16:30.482Z,6.96
2022-12-06T01:19:01.372Z,6.95
2022-12-06T01:21:29.468Z,6.94
2022-12-06T01:23:57.074Z,6.92
2022-12-06T01:26:33.356Z,6.93
2022-12-06T01:29:01.216Z,6.90
2022-12-06T01:31:35.433Z,6.89
2022-12-06T01:34:05.794Z,6.87
2022-12-06T01:36:32.764Z,6.88
2022-12-06T01:39:00.987Z,6.87
2022-12-06T01:41:28.716Z,6.88
2022-12-06T01:43:56.784Z,6.90
2022-12-06T01:46:36.463Z,6.91
2022-12-06T01:49:31.092Z,6.87
2022-12-06T01:52:07.953Z,6.86
2022-12-06T01:54:35.184Z,6.88
2022-12-06T01:57:04.983Z,6.87
2022-12-06T01:59:31.835Z,6.87
2022-12-06T02:01:59.006Z,6.88
2022-12-06T02:04:27.100Z,6.89
2022-12-06T02:06:55.539Z,6.90
2022-12-06T02:09:23.309Z,6.90
2022-12-06T02:11:50.136Z,6.89
2022-12-06T02:14:23.513Z,6.89
2022-12-06T02:17:26.116Z,6.90
2022-12-06T02:20:00.850Z,6.86
2022-12-06T02:23:09.955Z,6.83
2022-12-06T02:26:25.463Z,6.80
2022-12-06T02:29:50.533Z,6.77
2022-12-06T02:32:55.431Z,6.72
2022-12-06T02:36:00.108Z,6.68
2022-12-06T02:38:45.813Z,6.68
2022-12-06T02:41:27.598Z,6.68
2022-12-06T02:44:00.329Z,6.67
2022-12-06T02:46:33.047Z,6.66
2022-12-06T02:49:03.084Z,6.68
2022-12-06T02:51:32.842Z,6.65
2022-12-06T02:54:03.212Z,6.66
2022-12-06T02:56:32.793Z,6.65
2022-12-06T02:58:59.824Z,6.64
2022-12-06T03:01:34.363Z,6.66
2022-12-06T03:04:47.400Z,6.64
2022-12-06T03:07:40.044Z,6.58
2022-12-06T03:10:20.979Z,6.59
2022-12-06T03:13:11.909Z,6.58
2022-12-06T03:16:07.342Z,6.56
2022-12-06T03:18:50.341Z,6.56
2022-12-06T03:21:53.357Z,6.55
2022-12-06T03:24:22.578Z,6.53
2022-12-06T03:26:51.466Z,6.52
2022-12-06T03:29:21.979Z,6.53
2022-12-06T03:31:49.844Z,6.53
2022-12-06T03:34:31.676Z,6.52
2022-12-06T03:36:59.456Z,6.49
2022-12-06T03:39:36.958Z,6.50
2022-12-06T03:42:04.360Z,6.48
2022-12-06T03:44:31.287Z,6.46
2022-12-06T03:47:30.208Z,6.46
2022-12-06T03:50:05.448Z,6.47
2022-12-06T03:52:33.615Z,6.45
2022-12-06T03:55:00.435Z,6.46
2022-12-06T03:57:27.438Z,6.46
2022-12-06T03:59:54.219Z,6.48
2022-12-06T04:02:21.009Z,6.49
2022-12-06T04:04:47.753Z,6.50
2022-12-06T04:07:14.771Z,6.51
2022-12-06T04:09:56.036Z,6.49
2022-12-06T04:12:42.677Z,6.47
2022-12-06T04:15:10.559Z,6.47
2022-12-06T04:18:00.780Z,6.47
2022-12-06T04:20:29.322Z,6.46
2022-12-06T04:23:05.408Z,6.47
2022-12-06T04:25:36.524Z,6.47
2022-12-06T04:28:22.643Z,6.45
2022-12-06T04:31:07.895Z,6.45
2022-12-06T04:33:53.018Z,6.43
2022-12-06T04:36:38.115Z,6.42
2022-12-06T04:39:05.715Z,6.41
2022-12-06T04:41:50.788Z,6.43
2022-12-06T04:44:17.581Z,6.44
2022-12-06T04:46:44.452Z,6.45
2022-12-06T04:49:11.473Z,6.47
2022-12-06T04:51:38.252Z,6.49
2022-12-06T04:54:05.566Z,6.49
2022-12-06T04:56:32.320Z,6.52
2022-12-06T04:58:59.219Z,6.53
2022-12-06T05:01:25.974Z,6.52
2022-12-06T05:03:52.763Z,6.54
2022-12-06T05:06:19.613Z,6.55
2022-12-06T05:08:46.380Z,6.56
2022-12-06T05:11:13.157Z,6.57
2022-12-06T05:13:39.920Z,6.58
2022-12-06T05:16:09.538Z,6.58
2022-12-06T05:18:36.456Z,6.58
2022-12-06T05:21:10.908Z,6.59
2022-12-06T05:23:37.786Z,6.59
2022-12-06T05:26:10.234Z,6.59
2022-12-06T05:28:37.155Z,6.60
2022-12-06T05:31:04.536Z,6.61
2022-12-06T05:33:31.693Z,6.62
2022-12-06T05:35:58.913Z,6.64
2022-12-06T05:38:25.822Z,6.65
2022-12-06T05:40:52.652Z,6.66
2022-12-06T05:43:19.430Z,6.66
2022-12-06T05:45:46.210Z,6.66
2022-12-06T05:48:13.061Z,6.67
2022-12-06T05:50:40.206Z,6.67
2022-12-06T05:53:07.208Z,6.69
2022-12-06T05:55:33.992Z,6.70
2022-12-06T05:58:00.776Z,6.71
2022-12-06T06:00:27.535Z,6.72
2022-12-06T06:02:54.574Z,6.71
2022-12-06T06:05:21.552Z,6.73
2022-12-06T06:07:48.392Z,6.73
2022-12-06T06:10:16.055Z,6.73
2022-12-06T06:12:44.596Z,6.73
2022-12-06T06:15:13.250Z,6.73
2022-12-06T06:17:40.397Z,6.73
2022-12-06T06:20:08.888Z,6.74
2022-12-06T06:22:38.168Z,6.75
2022-12-06T06:25:06.444Z,6.75
2022-12-06T06:27:37.620Z,6.77
2022-12-06T06:30:08.391Z,6.75
2022-12-06T06:32:35.608Z,6.75
2022-12-06T06:35:03.207Z,6.73
2022-12-06T06:37:29.980Z,6.74
2022-12-06T06:39:56.961Z,6.75
2022-12-06T06:42:23.831Z,6.74
2022-12-06T06:44:51.779Z,6.76
2022-12-06T06:47:18.570Z,6.77
2022-12-06T06:49:45.311Z,6.78
2022-12-06T06:52:12.110Z,6.79
2022-12-06T06:54:38.860Z,6.81
2022-12-06T06:57:05.925Z,6.81
2022-12-06T06:59:32.733Z,6.81
2022-12-06T07:01:59.657Z,6.83
2022-12-06T07:04:26.453Z,6.83
2022-12-06T07:06:53.240Z,6.86
2022-12-06T07:09:19.991Z,6.85
2022-12-06T07:11:46.723Z,6.85
2022-12-06T07:14:13.491Z,6.87
2022-12-06T07:16:40.271Z,6.88
2022-12-06T07:19:09.168Z,6.90
2022-12-06T07:21:36.209Z,6.90
2022-12-06T07:24:02.966Z,6.91
2022-12-06T07:26:29.753Z,6.93
2022-12-06T07:28:57.781Z,6.93
2022-12-06T07:31:28.636Z,6.94
2022-12-06T07:34:01.269Z,6.95
2022-12-06T07:36:31.287Z,6.97
2022-12-06T07:38:59.452Z,6.97
2022-12-06T07:41:47.233Z,6.98
2022-12-06T07:44:35.130Z,6.99
2022-12-06T07:47:02.391Z,6.98
2022-12-06T07:49:29.831Z,6.98
2022-12-06T07:51:57.436Z,7.01
2022-12-06T07:54:24.880Z,7.02
2022-12-06T07:56:51.802Z,7.05
2022-12-06T07:59:18.643Z,7.07
2022-12-06T08:01:45.545Z,7.09
2022-12-06T08:04:12.620Z,7.11
2022-12-06T08:06:39.730Z,7.11
2022-12-06T08:09:07.357Z,7.13
2022-12-06T08:11:34.871Z,7.14
2022-12-06T08:14:01.987Z,7.16
2022-12-06T08:16:28.752Z,7.18
2022-12-06T08:18:56.233Z,7.23
2022-12-06T08:21:26.000Z,7.24
2022-12-06T08:23:54.723Z,7.26
2022-12-06T08:26:23.882Z,7.27
2022-12-06T08:28:50.681Z,7.28
2022-12-06T08:31:23.946Z,7.30
2022-12-06T08:33:50.871Z,7.31
2022-12-06T08:36:21.701Z,7.33
2022-12-06T08:38:48.672Z,7.33
2022-12-06T08:41:34.453Z,7.36
2022-12-06T08:44:02.698Z,7.37
2022-12-06T08:46:31.655Z,7.38
2022-12-06T08:48:59.056Z,7.41
2022-12-06T08:51:25.981Z,7.43
2022-12-06T08:53:53.856Z,7.44
2022-12-06T08:56:21.044Z,7.47
2022-12-06T08:58:48.433Z,7.49
2022-12-06T09:01:18.731Z,7.51
2022-12-06T09:03:45.613Z,7.52
2022-12-06T09:06:12.437Z,7.53
2022-12-06T09:08:40.381Z,7.56
2022-12-06T09:11:08.475Z,7.58
2022-12-06T09:13:37.707Z,7.58
2022-12-06T09:16:12.276Z,7.61
2022-12-06T09:18:39.193Z,7.63
2022-12-06T09:21:12.213Z,7.66
2022-12-06T09:23:39.402Z,7.67
2022-12-06T09:26:07.336Z,7.69
2022-12-06T09:28:41.235Z,7.72
2022-12-06T09:31:09.454Z,7.72
2022-12-06T09:33:36.556Z,7.74
2022-12-06T09:36:14.841Z,7.76
2022-12-06T09:38:44.208Z,7.76
2022-12-06T09:41:56.914Z,7.78
2022-12-06T09:44:52.944Z,7.80
2022-12-06T09:47:40.989Z,7.81
2022-12-06T09:50:31.711Z,7.83
2022-12-06T09:53:50.302Z,7.85
2022-12-06T09:56:47.045Z,7.87
2022-12-06T10:00:06.092Z,7.88
2022-12-06T10:02:57.555Z,7.89
2022-12-06T10:05:55.290Z,7.94
2022-12-06T10:08:36.594Z,7.95
2022-12-06T10:11:40.984Z,7.97
2022-12-06T10:14:13.360Z,7.98
2022-12-06T10:17:03.479Z,8.01
2022-12-06T10:20:15.312Z,8.01
2022-12-06T10:23:29.454Z,8.02
2022-12-06T10:26:17.061Z,8.04
2022-12-06T10:28:55.778Z,8.06
2022-12-06T10:31:53.179Z,8.07
2022-12-06T10:34:57.205Z,8.08
2022-12-06T10:38:05.451Z,8.10
2022-12-06T10:41:06.628Z,8.10
2022-12-06T10:43:47.924Z,8.13
2022-12-06T10:46:52.495Z,8.14
2022-12-06T10:49:44.543Z,8.15
2022-12-06T10:52:31.780Z,8.17
2022-12-06T10:55:16.624Z,8.19
2022-12-06T10:58:27.469Z,8.20
2022-12-06T11:01:00.274Z,8.21
2022-12-06T11:04:02.141Z,8.20
2022-12-06T11:06:37.530Z,8.21
2022-12-06T11:09:19.320Z,8.23
2022-12-06T11:11:46.484Z,8.23
2022-12-06T11:14:43.373Z,8.23
2022-12-06T11:17:28.151Z,8.22
2022-12-06T11:20:34.505Z,8.21
2022-12-06T11:23:29.368Z,8.22
2022-12-06T11:26:20.909Z,8.17
2022-12-06T11:29:06.035Z,8.19
2022-12-06T11:31:38.235Z,8.22
2022-12-06T11:34:14.931Z,8.24
2022-12-06T11:36:42.119Z,8.28
2022-12-06T11:39:12.673Z,8.31
2022-12-06T11:41:39.607Z,8.32
2022-12-06T11:44:06.759Z,8.36
2022-12-06T11:46:33.617Z,8.36
2022-12-06T11:49:15.886Z,8.39
2022-12-06T11:51:42.647Z,8.38
2022-12-06T11:54:28.373Z,8.38
2022-12-06T11:57:00.134Z,8.37
2022-12-06T11:59:31.916Z,8.37
2022-12-06T12:02:02.829Z,8.39
2022-12-06T12:04:37.177Z,8.39
2022-12-06T12:07:09.949Z,8.39
2022-12-06T12:09:57.132Z,8.39
2022-12-06T12:12:48.392Z,8.38
2022-12-06T12:15:18.185Z,8.36
2022-12-06T12:17:53.089Z,8.35
2022-12-06T12:20:26.532Z,8.33
2022-12-06T12:23:23.990Z,8.31
2022-12-06T12:26:19.900Z,8.32
2022-12-06T12:29:05.809Z,8.31
2022-12-06T12:31:32.797Z,8.29
2022-12-06T12:34:23.809Z,8.31
2022-12-06T12:37:00.880Z,8.31
2022-12-06T12:39:44.393Z,8.33
2022-12-06T12:42:34.629Z,8.36
2022-12-06T12:45:04.645Z,8.36
2022-12-06T12:47:32.836Z,8.35
2022-12-06T12:50:27.322Z,8.39
2022-12-06T12:52:54.566Z,8.39
2022-12-06T12:55:27.045Z,8.41
2022-12-06T12:57:57.256Z,8.41
2022-12-06T13:00:29.587Z,8.42
2022-12-06T13:03:34.450Z,8.43
2022-12-06T13:05:58.620Z,8.42
2022-12-06T13:08:33.908Z,8.43
2022-12-06T13:11:04.276Z,8.44
2022-12-06T13:13:54.269Z,8.44
2022-12-06T13:16:34.233Z,8.46
2022-12-06T13:19:02.493Z,8.44
2022-12-06T13:21:39.432Z,8.45
2022-12-06T13:24:12.575Z,8.44
2022-12-06T13:26:56.495Z,8.44
2022-12-06T13:29:37.005Z,8.42
2022-12-06T13:32:19.961Z,8.40
2022-12-06T13:34:55.813Z,8.39
2022-12-06T13:37:47.025Z,8.39
2022-12-06T13:40:34.832Z,8.37
2022-12-06T13:43:05.569Z,8.35
2022-12-06T13:45:41.824Z,8.37
2022-12-06T13:48:26.846Z,8.36
2022-12-06T13:50:58.117Z,8.36
2022-12-06T13:53:27.863Z,8.35
2022-12-06T13:56:01.927Z,8.35
2022-12-06T13:58:28.611Z,8.32
2022-12-06T14:00:57.144Z,8.32
2022-12-06T14:03:26.789Z,8.31
2022-12-06T14:06:15.681Z,8.30
2022-12-06T14:08:52.336Z,8.27
2022-12-06T14:11:25.819Z,8.30
2022-12-06T14:13:55.532Z,8.29
2022-12-06T14:16:25.986Z,8.28
2022-12-06T14:18:52.819Z,8.27
2022-12-06T14:21:26.594Z,8.27
2022-12-06T14:23:53.393Z,8.24
2022-12-06T14:26:28.736Z,8.25
2022-12-06T14:29:01.620Z,8.23
2022-12-06T14:31:34.560Z,8.25
2022-12-06T14:34:01.517Z,8.24
2022-12-06T14:36:33.661Z,8.23
2022-12-06T14:39:12.480Z,8.22
2022-12-06T14:41:58.232Z,8.20
2022-12-06T14:44:32.502Z,8.19
2022-12-06T14:47:00.257Z,8.16
2022-12-06T14:49:47.125Z,8.15
2022-12-06T14:52:25.738Z,8.13
2022-12-06T14:55:14.624Z,8.09
2022-12-06T14:57:57.178Z,8.08
2022-12-06T15:00:35.042Z,8.09
2022-12-06T15:03:08.278Z,8.08
2022-12-06T15:05:49.594Z,8.08
2022-12-06T15:08:28.510Z,8.07
2022-12-06T15:11:33.588Z,8.07
2022-12-06T15:14:15.838Z,8.04
2022-12-06T15:17:06.364Z,8.03
2022-12-06T15:19:36.815Z,8.04
2022-12-06T15:22:04.334Z,8.03
2022-12-06T15:24:32.061Z,8.03
2022-12-06T15:26:58.808Z,8.04
2022-12-06T15:29:25.651Z,8.05
2022-12-06T15:31:54.643Z,8.04
2022-12-06T15:34:31.060Z,8.05
2022-12-06T15:37:30.176Z,8.04
2022-12-06T15:39:48.315Z,8.02
2022-12-06T15:42:22.363Z,8.04
2022-12-06T15:44:50.859Z,8.03
2022-12-06T15:47:19.660Z,8.05
2022-12-06T15:49:47.193Z,8.04
2022-12-06T15:52:22.851Z,8.04
2022-12-06T15:54:49.669Z,8.02
2022-12-06T15:57:16.452Z,8.01
2022-12-06T15:59:43.242Z,7.99
2022-12-06T16:02:18.049Z,7.98
2022-12-06T16:04:48.220Z,7.97
2022-12-06T16:07:18.434Z,7.97
2022-12-06T16:09:45.630Z,7.94
2022-12-06T16:12:12.492Z,7.93
2022-12-06T16:14:39.282Z,7.93
2022-12-06T16:17:06.092Z,7.90
2022-12-06T16:19:51.379Z,7.90
2022-12-06T16:22:18.157Z,7.88
2022-12-06T16:24:49.461Z,7.89
2022-12-06T16:27:19.211Z,7.88
2022-12-06T16:29:45.968Z,7.89
2022-12-06T16:32:12.885Z,7.89
2022-12-06T16:34:39.644Z,7.90
2022-12-06T16:37:06.824Z,7.91
2022-12-06T16:39:35.261Z,7.94
2022-12-06T16:42:03.835Z,7.94
2022-12-06T16:44:30.949Z,7.94
2022-12-06T16:46:57.895Z,7.93
2022-12-06T16:52:15.602Z,7.94
2022-12-06T16:54:42.706Z,7.92
2022-12-06T16:57:12.510Z,7.93
2022-12-06T16:59:40.258Z,7.94
2022-12-06T17:02:29.646Z,7.94
2022-12-06T17:04:58.880Z,7.92
2022-12-06T17:07:25.903Z,7.90
2022-12-06T17:09:53.682Z,7.90
2022-12-06T17:12:20.788Z,7.89
2022-12-06T17:14:47.564Z,7.87
2022-12-06T17:17:17.770Z,7.87
2022-12-06T17:19:44.600Z,7.86
2022-12-06T17:22:12.890Z,7.87
2022-12-06T17:24:39.969Z,7.86
2022-12-06T17:27:08.924Z,7.87
2022-12-06T17:29:36.316Z,7.87
2022-12-06T17:32:03.108Z,7.87
2022-12-06T17:34:29.881Z,7.85
2022-12-06T17:36:57.831Z,7.86
2022-12-06T17:39:25.075Z,7.85
2022-12-06T17:42:10.304Z,7.86
2022-12-06T17:44:39.875Z,7.84
2022-12-06T17:47:06.923Z,7.83
2022-12-06T17:49:35.972Z,7.83
2022-12-06T17:52:02.781Z,7.83
2022-12-06T17:54:29.528Z,7.84
2022-12-06T17:56:56.456Z,7.83
2022-12-06T17:59:30.352Z,7.83
2022-12-06T18:02:17.871Z,7.84
2022-12-06T18:04:47.128Z,7.82
2022-12-06T18:07:14.588Z,7.84
2022-12-06T18:09:41.492Z,7.83
2022-12-06T18:12:10.562Z,7.84
2022-12-06T18:14:37.493Z,7.84
2022-12-06T18:17:04.438Z,7.85
2022-12-06T18:19:31.871Z,7.86
2022-12-06T18:21:58.722Z,7.87
2022-12-06T18:24:30.612Z,7.89
2022-12-06T18:27:00.248Z,7.88
2022-12-06T18:29:27.102Z,7.90
2022-12-06T18:31:54.070Z,7.90
2022-12-06T18:34:20.962Z,7.90
2022-12-06T18:36:48.186Z,7.91
2022-12-06T18:39:24.052Z,7.90
2022-12-06T18:41:53.072Z,7.88
2022-12-06T18:44:19.821Z,7.84
2022-12-06T18:46:46.696Z,7.82
2022-12-06T18:49:14.401Z,7.81
2022-12-06T18:51:41.598Z,7.79
2022-12-06T18:54:08.977Z,7.79
2022-12-06T18:56:36.287Z,7.74
2022-12-06T18:59:07.478Z,7.73
2022-12-06T19:01:37.693Z,7.71
2022-12-06T19:04:07.483Z,7.66
2022-12-06T19:06:37.344Z,7.63
2022-12-06T19:09:10.466Z,7.58
2022-12-06T19:11:39.571Z,7.52
2022-12-06T19:14:07.302Z,7.48
2022-12-06T19:16:44.159Z,7.44
2022-12-06T19:19:16.977Z,7.39
2022-12-06T19:21:46.557Z,7.37
2022-12-06T19:24:17.410Z,7.33
2022-12-06T19:26:44.708Z,7.28
2022-12-06T19:29:12.725Z,7.23
2022-12-06T19:31:39.518Z,7.17
2022-12-06T19:34:06.299Z,7.12
2022-12-06T19:36:33.574Z,7.07
2022-12-06T19:39:06.291Z,7.00
2022-12-06T19:41:52.680Z,6.92
2022-12-06T19:44:19.529Z,6.84
2022-12-06T19:46:48.090Z,6.80
2022-12-06T19:49:17.935Z,6.74
2022-12-06T19:51:46.388Z,6.67
2022-12-06T19:54:19.612Z,6.61
2022-12-06T19:56:48.444Z,6.55
2022-12-06T19:59:15.411Z,6.50
2022-12-06T20:01:45.241Z,6.46
2022-12-06T20:04:18.228Z,6.42
2022-12-06T20:06:45.734Z,6.38
2022-12-06T20:09:14.405Z,6.32
2022-12-06T20:12:01.744Z,6.28
2022-12-06T20:14:33.721Z,6.24
2022-12-06T20:17:01.964Z,6.24
2022-12-06T20:19:28.983Z,6.24
2022-12-06T20:21:55.782Z,6.24
2022-12-06T20:24:23.552Z,6.23
2022-12-06T20:26:53.232Z,6.22
2022-12-06T20:29:21.096Z,6.22
2022-12-06T20:31:51.277Z,6.20
2022-12-06T20:34:18.841Z,6.18
2022-12-06T20:36:45.782Z,6.17
2022-12-06T20:39:25.218Z,6.20
2022-12-06T20:41:52.721Z,6.21
2022-12-06T20:44:21.005Z,6.23
2022-12-06T20:46:51.267Z,6.21
2022-12-06T20:49:18.151Z,6.19
2022-12-06T20:51:51.117Z,6.16
2022-12-06T20:54:19.719Z,6.12
2022-12-06T20:56:47.054Z,6.10
2022-12-06T20:59:14.019Z,6.08
2022-12-06T21:01:42.073Z,6.05
2022-12-06T21:04:13.435Z,6.03
2022-12-06T21:06:40.993Z,6.03
2022-12-06T21:09:07.948Z,6.02
2022-12-06T21:11:34.800Z,6.02
2022-12-06T21:14:01.596Z,6.01
2022-12-06T21:16:31.470Z,5.99
2022-12-06T21:19:02.156Z,5.99
2022-12-06T21:21:35.136Z,6.00
2022-12-06T21:24:05.009Z,6.01
2022-12-06T21:26:32.343Z,6.05
2022-12-06T21:28:59.291Z,6.08
2022-12-06T21:31:32.506Z,6.12
2022-12-06T21:33:59.563Z,6.15
2022-12-06T21:36:26.490Z,6.18
2022-12-06T21:38:54.246Z,6.22
2022-12-06T21:41:22.004Z,6.24
2022-12-06T21:43:49.037Z,6.28
2022-12-06T21:46:22.529Z,6.32
2022-12-06T21:48:51.490Z,6.33
2022-12-06T21:51:19.278Z,6.35
2022-12-06T21:53:46.069Z,6.37
2022-12-06T21:56:21.952Z,6.41
2022-12-06T21:58:49.380Z,6.42
2022-12-06T22:01:27.865Z,6.45
2022-12-06T22:03:58.077Z,6.47
2022-12-06T22:06:25.541Z,6.48
2022-12-06T22:09:02.123Z,6.51
2022-12-06T22:11:30.323Z,6.53
2022-12-06T22:13:59.073Z,6.55
2022-12-06T22:16:26.580Z,6.57
2022-12-06T22:18:55.098Z,6.60
2022-12-06T22:21:26.777Z,6.60
2022-12-06T22:23:55.304Z,6.62
2022-12-06T22:26:23.173Z,6.63
2022-12-06T22:28:50.625Z,6.63
2022-12-06T22:31:24.498Z,6.66
2022-12-06T22:33:52.473Z,6.67
2022-12-06T22:36:21.083Z,6.71
2022-12-06T22:38:53.515Z,6.75
2022-12-06T22:41:21.267Z,6.78
2022-12-06T22:43:54.247Z,6.82
2022-12-06T22:46:21.743Z,6.85
2022-12-06T22:48:49.274Z,6.87
2022-12-06T22:51:23.479Z,6.90
2022-12-06T22:53:59.730Z,6.94
2022-12-06T22:56:27.308Z,6.93
2022-12-06T22:58:56.538Z,6.97
2022-12-06T23:01:28.226Z,6.99
2022-12-06T23:03:55.945Z,7.01
2022-12-06T23:06:25.357Z,7.03
2022-12-06T23:08:53.338Z,7.04
2022-12-06T23:11:30.228Z,7.07
2022-12-06T23:13:58.216Z,7.08
2022-12-06T23:16:29.690Z,7.11
2022-12-06T23:18:56.785Z,7.12
2022-12-06T23:21:35.946Z,7.15
2022-12-06T23:24:07.313Z,7.16
2022-12-06T23:26:39.202Z,7.20
2022-12-06T23:29:06.576Z,7.23
2022-12-06T23:31:36.434Z,7.24
2022-12-06T23:34:07.232Z,7.27
2022-12-06T23:36:35.226Z,7.30
2022-12-06T23:39:03.173Z,7.31
2022-12-06T23:41:31.909Z,7.33
2022-12-06T23:43:59.409Z,7.35
2022-12-06T23:46:29.395Z,7.36
2022-12-06T23:48:56.954Z,7.38
2022-12-06T23:51:27.562Z,7.42
2022-12-06T23:53:59.012Z,7.45
2022-12-06T23:56:32.430Z,7.46
2022-12-06T23:59:00.293Z,7.48
